sensor_id;sensor_type;location;lat;lon;timestamp;temperature;humidity
76384;SHT30;65204;48.606;7.598;2022-11-23T00:00:21;9.70;71.69
76384;SHT30;65204;48.606;7.598;2022-11-23T00:00:51;9.67;71.76
76384;SHT30;65204;48.606;7.598;2022-11-23T00:01:24;9.64;71.82
76384;SHT30;65204;48.606;7.598;2022-11-23T00:01:55;9.67;71.82
76384;SHT30;65204;48.606;7.598;2022-11-23T00:02:25;9.67;71.78
76384;SHT30;65204;48.606;7.598;2022-11-23T00:02:56;9.67;71.83
76384;SHT30;65204;48.606;7.598;2022-11-23T00:03:27;9.66;71.87
76384;SHT30;65204;48.606;7.598;2022-11-23T00:04:00;9.67;71.87
76384;SHT30;65204;48.606;7.598;2022-11-23T00:04:31;9.64;71.99
76384;SHT30;65204;48.606;7.598;2022-11-23T00:05:02;9.63;71.98
76384;SHT30;65204;48.606;7.598;2022-11-23T00:05:33;9.66;71.98
76384;SHT30;65204;48.606;7.598;2022-11-23T00:06:03;9.66;72.10
76384;SHT30;65204;48.606;7.598;2022-11-23T00:06:35;9.64;72.03
76384;SHT30;65204;48.606;7.598;2022-11-23T00:07:05;9.63;72.11
76384;SHT30;65204;48.606;7.598;2022-11-23T00:07:35;9.63;72.04
76384;SHT30;65204;48.606;7.598;2022-11-23T00:08:06;9.60;72.00
76384;SHT30;65204;48.606;7.598;2022-11-23T00:08:36;9.62;72.04
76384;SHT30;65204;48.606;7.598;2022-11-23T00:09:10;9.60;72.09
76384;SHT30;65204;48.606;7.598;2022-11-23T00:09:41;9.60;72.08
76384;SHT30;65204;48.606;7.598;2022-11-23T00:10:12;9.59;72.01
76384;SHT30;65204;48.606;7.598;2022-11-23T00:10:42;9.60;72.17
76384;SHT30;65204;48.606;7.598;2022-11-23T00:11:13;9.57;72.08
76384;SHT30;65204;48.606;7.598;2022-11-23T00:11:44;9.56;72.13
76384;SHT30;65204;48.606;7.598;2022-11-23T00:12:14;9.57;72.16
76384;SHT30;65204;48.606;7.598;2022-11-23T00:12:44;9.57;72.04
76384;SHT30;65204;48.606;7.598;2022-11-23T00:13:15;9.57;72.09
76384;SHT30;65204;48.606;7.598;2022-11-23T00:13:46;9.54;72.19
76384;SHT30;65204;48.606;7.598;2022-11-23T00:14:16;9.54;72.20
76384;SHT30;65204;48.606;7.598;2022-11-23T00:14:46;9.52;72.16
76384;SHT30;65204;48.606;7.598;2022-11-23T00:15:17;9.50;72.15
76384;SHT30;65204;48.606;7.598;2022-11-23T00:15:47;9.50;72.17
76384;SHT30;65204;48.606;7.598;2022-11-23T00:16:20;9.52;72.15
76384;SHT30;65204;48.606;7.598;2022-11-23T00:16:50;9.49;72.30
76384;SHT30;65204;48.606;7.598;2022-11-23T00:17:21;9.49;72.23
76384;SHT30;65204;48.606;7.598;2022-11-23T00:17:51;9.49;72.10
76384;SHT30;65204;48.606;7.598;2022-11-23T00:18:21;9.47;72.11
76384;SHT30;65204;48.606;7.598;2022-11-23T00:18:53;9.46;72.17
76384;SHT30;65204;48.606;7.598;2022-11-23T00:19:23;9.46;72.14
76384;SHT30;65204;48.606;7.598;2022-11-23T00:19:54;9.46;72.11
76384;SHT30;65204;48.606;7.598;2022-11-23T00:20:24;9.42;72.18
76384;SHT30;65204;48.606;7.598;2022-11-23T00:20:55;9.43;72.20
76384;SHT30;65204;48.606;7.598;2022-11-23T00:21:28;9.44;72.26
76384;SHT30;65204;48.606;7.598;2022-11-23T00:21:59;9.40;72.37
76384;SHT30;65204;48.606;7.598;2022-11-23T00:22:29;9.38;72.30
76384;SHT30;65204;48.606;7.598;2022-11-23T00:22:59;9.38;72.36
76384;SHT30;65204;48.606;7.598;2022-11-23T00:23:30;9.38;72.37
76384;SHT30;65204;48.606;7.598;2022-11-23T00:24:00;9.39;72.38
76384;SHT30;65204;48.606;7.598;2022-11-23T00:24:31;9.38;72.42
76384;SHT30;65204;48.606;7.598;2022-11-23T00:25:01;9.35;72.53
76384;SHT30;65204;48.606;7.598;2022-11-23T00:25:33;9.36;72.52
76384;SHT30;65204;48.606;7.598;2022-11-23T00:26:04;9.35;72.62
76384;SHT30;65204;48.606;7.598;2022-11-23T00:26:35;9.35;72.62
76384;SHT30;65204;48.606;7.598;2022-11-23T00:27:05;9.36;72.69
76384;SHT30;65204;48.606;7.598;2022-11-23T00:27:36;9.32;72.73
76384;SHT30;65204;48.606;7.598;2022-11-23T00:28:06;9.33;72.66
76384;SHT30;65204;48.606;7.598;2022-11-23T00:28:37;9.35;72.72
76384;SHT30;65204;48.606;7.598;2022-11-23T00:29:09;9.35;72.66
76384;SHT30;65204;48.606;7.598;2022-11-23T00:29:40;9.36;72.75
76384;SHT30;65204;48.606;7.598;2022-11-23T00:30:10;9.38;72.76
76384;SHT30;65204;48.606;7.598;2022-11-23T00:30:41;9.33;72.78
76384;SHT30;65204;48.606;7.598;2022-11-23T00:31:14;9.35;72.74
76384;SHT30;65204;48.606;7.598;2022-11-23T00:31:45;9.33;72.74
76384;SHT30;65204;48.606;7.598;2022-11-23T00:32:15;9.35;72.77
76384;SHT30;65204;48.606;7.598;2022-11-23T00:32:46;9.36;72.66
76384;SHT30;65204;48.606;7.598;2022-11-23T00:33:17;9.36;72.81
76384;SHT30;65204;48.606;7.598;2022-11-23T00:33:52;9.36;72.77
76384;SHT30;65204;48.606;7.598;2022-11-23T00:34:22;9.38;72.89
76384;SHT30;65204;48.606;7.598;2022-11-23T00:34:53;9.33;72.86
76384;SHT30;65204;48.606;7.598;2022-11-23T00:35:23;9.38;72.74
76384;SHT30;65204;48.606;7.598;2022-11-23T00:36:02;9.40;72.65
76384;SHT30;65204;48.606;7.598;2022-11-23T00:36:33;9.40;72.73
76384;SHT30;65204;48.606;7.598;2022-11-23T00:37:03;9.43;72.65
76384;SHT30;65204;48.606;7.598;2022-11-23T00:37:33;9.43;72.76
76384;SHT30;65204;48.606;7.598;2022-11-23T00:38:04;9.42;72.62
76384;SHT30;65204;48.606;7.598;2022-11-23T00:38:34;9.46;72.65
76384;SHT30;65204;48.606;7.598;2022-11-23T00:39:04;9.42;72.79
76384;SHT30;65204;48.606;7.598;2022-11-23T00:39:35;9.43;72.68
76384;SHT30;65204;48.606;7.598;2022-11-23T00:40:05;9.44;72.63
76384;SHT30;65204;48.606;7.598;2022-11-23T00:40:36;9.46;72.79
76384;SHT30;65204;48.606;7.598;2022-11-23T00:41:09;9.44;72.80
76384;SHT30;65204;48.606;7.598;2022-11-23T00:41:40;9.44;72.77
76384;SHT30;65204;48.606;7.598;2022-11-23T00:42:10;9.44;72.73
76384;SHT30;65204;48.606;7.598;2022-11-23T00:42:40;9.46;72.78
76384;SHT30;65204;48.606;7.598;2022-11-23T00:43:10;9.47;72.67
76384;SHT30;65204;48.606;7.598;2022-11-23T00:43:42;9.47;72.75
76384;SHT30;65204;48.606;7.598;2022-11-23T00:44:12;9.46;72.68
76384;SHT30;65204;48.606;7.598;2022-11-23T00:44:43;9.50;72.73
76384;SHT30;65204;48.606;7.598;2022-11-23T00:45:13;9.49;72.81
76384;SHT30;65204;48.606;7.598;2022-11-23T00:45:44;9.46;72.91
76384;SHT30;65204;48.606;7.598;2022-11-23T00:46:22;9.44;72.89
76384;SHT30;65204;48.606;7.598;2022-11-23T00:46:52;9.46;72.80
76384;SHT30;65204;48.606;7.598;2022-11-23T00:47:23;9.46;72.83
76384;SHT30;65204;48.606;7.598;2022-11-23T00:47:53;9.46;72.81
76384;SHT30;65204;48.606;7.598;2022-11-23T00:48:23;9.46;72.88
76384;SHT30;65204;48.606;7.598;2022-11-23T00:48:55;9.46;72.85
76384;SHT30;65204;48.606;7.598;2022-11-23T00:49:26;9.46;72.85
76384;SHT30;65204;48.606;7.598;2022-11-23T00:49:56;9.46;72.82
76384;SHT30;65204;48.606;7.598;2022-11-23T00:50:26;9.46;72.83
76384;SHT30;65204;48.606;7.598;2022-11-23T00:50:58;9.47;72.86
76384;SHT30;65204;48.606;7.598;2022-11-23T00:51:30;9.53;72.74
76384;SHT30;65204;48.606;7.598;2022-11-23T00:52:00;9.49;72.74
76384;SHT30;65204;48.606;7.598;2022-11-23T00:52:31;9.50;72.69
76384;SHT30;65204;48.606;7.598;2022-11-23T00:53:01;9.52;72.78
76384;SHT30;65204;48.606;7.598;2022-11-23T00:53:32;9.52;72.72
76384;SHT30;65204;48.606;7.598;2022-11-23T00:54:04;9.49;72.71
76384;SHT30;65204;48.606;7.598;2022-11-23T00:54:34;9.50;72.68
76384;SHT30;65204;48.606;7.598;2022-11-23T00:55:05;9.49;72.74
76384;SHT30;65204;48.606;7.598;2022-11-23T00:55:35;9.50;72.72
76384;SHT30;65204;48.606;7.598;2022-11-23T00:56:06;9.52;72.76
76384;SHT30;65204;48.606;7.598;2022-11-23T00:56:37;9.49;72.79
76384;SHT30;65204;48.606;7.598;2022-11-23T00:57:07;9.49;72.91
76384;SHT30;65204;48.606;7.598;2022-11-23T00:57:37;9.50;72.87
76384;SHT30;65204;48.606;7.598;2022-11-23T00:58:08;9.50;72.85
76384;SHT30;65204;48.606;7.598;2022-11-23T00:58:38;9.46;72.86
76384;SHT30;65204;48.606;7.598;2022-11-23T00:59:08;9.50;72.79
76384;SHT30;65204;48.606;7.598;2022-11-23T00:59:39;9.49;72.78
76384;SHT30;65204;48.606;7.598;2022-11-23T01:00:10;9.50;72.79
76384;SHT30;65204;48.606;7.598;2022-11-23T01:00:41;9.53;72.72
76384;SHT30;65204;48.606;7.598;2022-11-23T01:01:13;9.50;72.81
76384;SHT30;65204;48.606;7.598;2022-11-23T01:01:44;9.52;72.79
76384;SHT30;65204;48.606;7.598;2022-11-23T01:02:14;9.49;72.68
76384;SHT30;65204;48.606;7.598;2022-11-23T01:02:45;9.52;72.70
76384;SHT30;65204;48.606;7.598;2022-11-23T01:03:15;9.50;72.61
76384;SHT30;65204;48.606;7.598;2022-11-23T01:03:50;9.52;72.63
76384;SHT30;65204;48.606;7.598;2022-11-23T01:04:20;9.53;72.57
76384;SHT30;65204;48.606;7.598;2022-11-23T01:04:51;9.53;72.49
76384;SHT30;65204;48.606;7.598;2022-11-23T01:05:21;9.53;72.52
76384;SHT30;65204;48.606;7.598;2022-11-23T01:05:51;9.53;72.59
76384;SHT30;65204;48.606;7.598;2022-11-23T01:06:26;9.54;72.68
76384;SHT30;65204;48.606;7.598;2022-11-23T01:06:56;9.50;72.60
76384;SHT30;65204;48.606;7.598;2022-11-23T01:07:27;9.50;72.57
76384;SHT30;65204;48.606;7.598;2022-11-23T01:07:59;9.56;72.59
76384;SHT30;65204;48.606;7.598;2022-11-23T01:08:30;9.52;72.62
76384;SHT30;65204;48.606;7.598;2022-11-23T01:09:06;9.52;72.46
76384;SHT30;65204;48.606;7.598;2022-11-23T01:09:37;9.53;72.49
76384;SHT30;65204;48.606;7.598;2022-11-23T01:10:08;9.50;72.58
76384;SHT30;65204;48.606;7.598;2022-11-23T01:10:38;9.53;72.65
76384;SHT30;65204;48.606;7.598;2022-11-23T01:11:11;9.53;72.52
76384;SHT30;65204;48.606;7.598;2022-11-23T01:11:41;9.50;72.56
76384;SHT30;65204;48.606;7.598;2022-11-23T01:12:11;9.50;72.53
76384;SHT30;65204;48.606;7.598;2022-11-23T01:12:42;9.52;72.66
76384;SHT30;65204;48.606;7.598;2022-11-23T01:13:12;9.52;72.57
76384;SHT30;65204;48.606;7.598;2022-11-23T01:13:43;9.53;72.75
76384;SHT30;65204;48.606;7.598;2022-11-23T01:14:13;9.52;72.71
76384;SHT30;65204;48.606;7.598;2022-11-23T01:14:43;9.52;72.75
76384;SHT30;65204;48.606;7.598;2022-11-23T01:15:14;9.52;72.77
76384;SHT30;65204;48.606;7.598;2022-11-23T01:15:49;9.50;72.77
76384;SHT30;65204;48.606;7.598;2022-11-23T01:16:34;9.53;72.74
76384;SHT30;65204;48.606;7.598;2022-11-23T01:17:04;9.54;72.63
76384;SHT30;65204;48.606;7.598;2022-11-23T01:17:35;9.54;72.58
76384;SHT30;65204;48.606;7.598;2022-11-23T01:18:05;9.54;72.53
76384;SHT30;65204;48.606;7.598;2022-11-23T01:18:35;9.54;72.62
76384;SHT30;65204;48.606;7.598;2022-11-23T01:19:09;9.53;72.65
76384;SHT30;65204;48.606;7.598;2022-11-23T01:19:40;9.54;72.55
76384;SHT30;65204;48.606;7.598;2022-11-23T01:20:11;9.54;72.52
76384;SHT30;65204;48.606;7.598;2022-11-23T01:20:41;9.54;72.47
76384;SHT30;65204;48.606;7.598;2022-11-23T01:21:12;9.53;72.48
76384;SHT30;65204;48.606;7.598;2022-11-23T01:21:43;9.53;72.50
76384;SHT30;65204;48.606;7.598;2022-11-23T01:22:13;9.53;72.41
76384;SHT30;65204;48.606;7.598;2022-11-23T01:22:43;9.54;72.42
76384;SHT30;65204;48.606;7.598;2022-11-23T01:23:14;9.54;72.43
76384;SHT30;65204;48.606;7.598;2022-11-23T01:23:44;9.53;72.48
76384;SHT30;65204;48.606;7.598;2022-11-23T01:24:20;9.54;72.51
76384;SHT30;65204;48.606;7.598;2022-11-23T01:24:51;9.56;72.65
76384;SHT30;65204;48.606;7.598;2022-11-23T01:25:21;9.56;72.57
76384;SHT30;65204;48.606;7.598;2022-11-23T01:25:51;9.54;72.56
76384;SHT30;65204;48.606;7.598;2022-11-23T01:26:22;9.50;72.59
76384;SHT30;65204;48.606;7.598;2022-11-23T01:26:54;9.52;72.84
76384;SHT30;65204;48.606;7.598;2022-11-23T01:27:24;9.56;72.72
76384;SHT30;65204;48.606;7.598;2022-11-23T01:27:55;9.53;72.73
76384;SHT30;65204;48.606;7.598;2022-11-23T01:28:25;9.54;72.70
76384;SHT30;65204;48.606;7.598;2022-11-23T01:28:55;9.54;72.70
76384;SHT30;65204;48.606;7.598;2022-11-23T01:29:26;9.54;72.65
76384;SHT30;65204;48.606;7.598;2022-11-23T01:29:56;9.53;72.64
76384;SHT30;65204;48.606;7.598;2022-11-23T01:30:27;9.53;72.63
76384;SHT30;65204;48.606;7.598;2022-11-23T01:31:08;9.53;72.63
76384;SHT30;65204;48.606;7.598;2022-11-23T01:31:39;9.54;72.60
76384;SHT30;65204;48.606;7.598;2022-11-23T01:32:10;9.53;72.83
76384;SHT30;65204;48.606;7.598;2022-11-23T01:32:40;9.54;72.68
76384;SHT30;65204;48.606;7.598;2022-11-23T01:33:10;9.57;72.70
76384;SHT30;65204;48.606;7.598;2022-11-23T01:33:41;9.54;72.76
76384;SHT30;65204;48.606;7.598;2022-11-23T01:34:12;9.56;72.74
76384;SHT30;65204;48.606;7.598;2022-11-23T01:34:43;9.57;72.69
76384;SHT30;65204;48.606;7.598;2022-11-23T01:35:13;9.54;72.63
76384;SHT30;65204;48.606;7.598;2022-11-23T01:35:43;9.54;72.42
76384;SHT30;65204;48.606;7.598;2022-11-23T01:36:16;9.57;72.30
76384;SHT30;65204;48.606;7.598;2022-11-23T01:36:47;9.56;72.39
76384;SHT30;65204;48.606;7.598;2022-11-23T01:37:17;9.56;72.42
76384;SHT30;65204;48.606;7.598;2022-11-23T01:37:47;9.57;72.52
76384;SHT30;65204;48.606;7.598;2022-11-23T01:38:18;9.56;72.48
76384;SHT30;65204;48.606;7.598;2022-11-23T01:38:48;9.56;72.56
76384;SHT30;65204;48.606;7.598;2022-11-23T01:39:19;9.56;72.53
76384;SHT30;65204;48.606;7.598;2022-11-23T01:39:49;9.57;72.69
76384;SHT30;65204;48.606;7.598;2022-11-23T01:40:20;9.57;72.70
76384;SHT30;65204;48.606;7.598;2022-11-23T01:40:50;9.59;72.72
76384;SHT30;65204;48.606;7.598;2022-11-23T01:41:25;9.60;72.76
76384;SHT30;65204;48.606;7.598;2022-11-23T01:41:55;9.60;72.77
76384;SHT30;65204;48.606;7.598;2022-11-23T01:42:42;9.60;72.83
76384;SHT30;65204;48.606;7.598;2022-11-23T01:43:17;9.62;72.82
76384;SHT30;65204;48.606;7.598;2022-11-23T01:43:47;9.62;72.97
76384;SHT30;65204;48.606;7.598;2022-11-23T01:44:28;9.63;72.98
76384;SHT30;65204;48.606;7.598;2022-11-23T01:45:37;9.62;73.14
76384;SHT30;65204;48.606;7.598;2022-11-23T01:46:08;9.62;73.09
76384;SHT30;65204;48.606;7.598;2022-11-23T01:46:38;9.63;72.99
76384;SHT30;65204;48.606;7.598;2022-11-23T01:47:09;9.62;72.99
76384;SHT30;65204;48.606;7.598;2022-11-23T01:47:40;9.62;72.98
76384;SHT30;65204;48.606;7.598;2022-11-23T01:48:17;9.62;72.89
76384;SHT30;65204;48.606;7.598;2022-11-23T01:49:27;9.62;72.87
76384;SHT30;65204;48.606;7.598;2022-11-23T01:49:59;9.63;72.76
76384;SHT30;65204;48.606;7.598;2022-11-23T01:50:29;9.62;72.81
76384;SHT30;65204;48.606;7.598;2022-11-23T01:51:03;9.62;72.85
76384;SHT30;65204;48.606;7.598;2022-11-23T01:51:37;9.60;72.94
76384;SHT30;65204;48.606;7.598;2022-11-23T01:52:22;9.62;73.06
76384;SHT30;65204;48.606;7.598;2022-11-23T01:52:54;9.62;73.12
76384;SHT30;65204;48.606;7.598;2022-11-23T01:53:27;9.63;73.05
76384;SHT30;65204;48.606;7.598;2022-11-23T01:54:01;9.60;72.98
76384;SHT30;65204;48.606;7.598;2022-11-23T01:54:40;9.60;72.75
76384;SHT30;65204;48.606;7.598;2022-11-23T01:55:13;9.60;72.81
76384;SHT30;65204;48.606;7.598;2022-11-23T01:55:45;9.60;72.79
76384;SHT30;65204;48.606;7.598;2022-11-23T01:56:20;9.63;72.79
76384;SHT30;65204;48.606;7.598;2022-11-23T01:57:01;9.60;72.83
76384;SHT30;65204;48.606;7.598;2022-11-23T01:57:38;9.62;72.88
76384;SHT30;65204;48.606;7.598;2022-11-23T01:58:12;9.63;72.77
76384;SHT30;65204;48.606;7.598;2022-11-23T01:58:47;9.63;72.74
76384;SHT30;65204;48.606;7.598;2022-11-23T01:59:20;9.62;72.79
76384;SHT30;65204;48.606;7.598;2022-11-23T01:59:52;9.63;72.73
76384;SHT30;65204;48.606;7.598;2022-11-23T02:00:23;9.62;72.64
76384;SHT30;65204;48.606;7.598;2022-11-23T02:00:53;9.60;72.79
76384;SHT30;65204;48.606;7.598;2022-11-23T02:01:24;9.60;72.75
76384;SHT30;65204;48.606;7.598;2022-11-23T02:01:54;9.59;72.81
76384;SHT30;65204;48.606;7.598;2022-11-23T02:02:27;9.62;72.75
76384;SHT30;65204;48.606;7.598;2022-11-23T02:02:59;9.59;72.56
76384;SHT30;65204;48.606;7.598;2022-11-23T02:03:31;9.64;72.59
76384;SHT30;65204;48.606;7.598;2022-11-23T02:04:02;9.62;72.73
76384;SHT30;65204;48.606;7.598;2022-11-23T02:04:38;9.62;72.87
76384;SHT30;65204;48.606;7.598;2022-11-23T02:05:10;9.62;72.86
76384;SHT30;65204;48.606;7.598;2022-11-23T02:05:45;9.63;72.79
76384;SHT30;65204;48.606;7.598;2022-11-23T02:06:18;9.63;72.75
76384;SHT30;65204;48.606;7.598;2022-11-23T02:06:49;9.63;72.86
76384;SHT30;65204;48.606;7.598;2022-11-23T02:07:20;9.62;72.81
76384;SHT30;65204;48.606;7.598;2022-11-23T02:07:53;9.62;72.73
76384;SHT30;65204;48.606;7.598;2022-11-23T02:08:24;9.60;72.60
76384;SHT30;65204;48.606;7.598;2022-11-23T02:08:55;9.57;72.66
76384;SHT30;65204;48.606;7.598;2022-11-23T02:09:25;9.57;72.73
76384;SHT30;65204;48.606;7.598;2022-11-23T02:09:56;9.59;72.76
76384;SHT30;65204;48.606;7.598;2022-11-23T02:10:29;9.59;72.87
76384;SHT30;65204;48.606;7.598;2022-11-23T02:11:01;9.57;72.94
76384;SHT30;65204;48.606;7.598;2022-11-23T02:11:32;9.60;72.97
76384;SHT30;65204;48.606;7.598;2022-11-23T02:12:09;9.57;72.98
76384;SHT30;65204;48.606;7.598;2022-11-23T02:12:39;9.60;72.76
76384;SHT30;65204;48.606;7.598;2022-11-23T02:13:11;9.62;72.73
76384;SHT30;65204;48.606;7.598;2022-11-23T02:13:44;9.59;73.03
76384;SHT30;65204;48.606;7.598;2022-11-23T02:14:17;9.60;73.07
76384;SHT30;65204;48.606;7.598;2022-11-23T02:14:47;9.57;72.86
76384;SHT30;65204;48.606;7.598;2022-11-23T02:15:18;9.59;72.76
76384;SHT30;65204;48.606;7.598;2022-11-23T02:15:49;9.59;72.87
76384;SHT30;65204;48.606;7.598;2022-11-23T02:16:19;9.59;72.78
76384;SHT30;65204;48.606;7.598;2022-11-23T02:16:50;9.60;72.86
76384;SHT30;65204;48.606;7.598;2022-11-23T02:17:20;9.56;72.92
76384;SHT30;65204;48.606;7.598;2022-11-23T02:17:51;9.56;72.90
76384;SHT30;65204;48.606;7.598;2022-11-23T02:18:24;9.56;72.82
76384;SHT30;65204;48.606;7.598;2022-11-23T02:18:55;9.56;72.90
76384;SHT30;65204;48.606;7.598;2022-11-23T02:19:49;9.57;72.80
76384;SHT30;65204;48.606;7.598;2022-11-23T02:20:22;9.57;72.71
76384;SHT30;65204;48.606;7.598;2022-11-23T02:20:53;9.54;72.73
76384;SHT30;65204;48.606;7.598;2022-11-23T02:21:24;9.56;72.72
76384;SHT30;65204;48.606;7.598;2022-11-23T02:21:55;9.56;72.80
76384;SHT30;65204;48.606;7.598;2022-11-23T02:24:04;9.50;72.73
76384;SHT30;65204;48.606;7.598;2022-11-23T02:24:41;9.50;72.81
76384;SHT30;65204;48.606;7.598;2022-11-23T02:26:43;9.43;72.93
76384;SHT30;65204;48.606;7.598;2022-11-23T02:27:15;9.39;73.04
76384;SHT30;65204;48.606;7.598;2022-11-23T02:27:45;9.39;73.07
76384;SHT30;65204;48.606;7.598;2022-11-23T02:28:20;9.36;73.18
76384;SHT30;65204;48.606;7.598;2022-11-23T02:29:13;9.35;73.26
76384;SHT30;65204;48.606;7.598;2022-11-23T02:29:46;9.32;73.23
76384;SHT30;65204;48.606;7.598;2022-11-23T02:30:17;9.32;73.19
76384;SHT30;65204;48.606;7.598;2022-11-23T02:30:49;9.31;73.27
76384;SHT30;65204;48.606;7.598;2022-11-23T02:31:21;9.29;73.34
76384;SHT30;65204;48.606;7.598;2022-11-23T02:31:52;9.31;73.18
76384;SHT30;65204;48.606;7.598;2022-11-23T02:32:23;9.28;73.23
76384;SHT30;65204;48.606;7.598;2022-11-23T02:32:54;9.26;73.20
76384;SHT30;65204;48.606;7.598;2022-11-23T02:33:24;9.28;73.47
76384;SHT30;65204;48.606;7.598;2022-11-23T02:33:55;9.23;73.57
76384;SHT30;65204;48.606;7.598;2022-11-23T02:34:25;9.23;73.38
76384;SHT30;65204;48.606;7.598;2022-11-23T02:34:56;9.25;73.40
76384;SHT30;65204;48.606;7.598;2022-11-23T02:35:26;9.22;73.49
76384;SHT30;65204;48.606;7.598;2022-11-23T02:35:58;9.25;73.53
76384;SHT30;65204;48.606;7.598;2022-11-23T02:36:34;9.25;73.45
76384;SHT30;65204;48.606;7.598;2022-11-23T02:37:07;9.26;73.51
76384;SHT30;65204;48.606;7.598;2022-11-23T02:37:38;9.26;73.51
76384;SHT30;65204;48.606;7.598;2022-11-23T02:38:10;9.23;73.51
76384;SHT30;65204;48.606;7.598;2022-11-23T02:38:41;9.28;73.43
76384;SHT30;65204;48.606;7.598;2022-11-23T02:39:23;9.28;73.39
76384;SHT30;65204;48.606;7.598;2022-11-23T02:39:58;9.28;73.28
76384;SHT30;65204;48.606;7.598;2022-11-23T02:40:33;9.28;73.29
76384;SHT30;65204;48.606;7.598;2022-11-23T02:41:04;9.29;73.31
76384;SHT30;65204;48.606;7.598;2022-11-23T02:41:42;9.32;73.30
76384;SHT30;65204;48.606;7.598;2022-11-23T02:42:13;9.31;73.36
76384;SHT30;65204;48.606;7.598;2022-11-23T02:42:44;9.33;73.54
76384;SHT30;65204;48.606;7.598;2022-11-23T02:43:15;9.31;73.36
76384;SHT30;65204;48.606;7.598;2022-11-23T02:43:47;9.32;73.34
76384;SHT30;65204;48.606;7.598;2022-11-23T02:45:24;9.32;73.40
76384;SHT30;65204;48.606;7.598;2022-11-23T02:45:58;9.35;73.29
76384;SHT30;65204;48.606;7.598;2022-11-23T02:46:30;9.35;73.34
76384;SHT30;65204;48.606;7.598;2022-11-23T02:47:01;9.36;73.37
76384;SHT30;65204;48.606;7.598;2022-11-23T02:47:31;9.35;73.51
76384;SHT30;65204;48.606;7.598;2022-11-23T02:48:02;9.32;73.53
76384;SHT30;65204;48.606;7.598;2022-11-23T02:48:33;9.32;73.48
76384;SHT30;65204;48.606;7.598;2022-11-23T02:49:04;9.32;73.47
76384;SHT30;65204;48.606;7.598;2022-11-23T02:49:35;9.32;73.45
76384;SHT30;65204;48.606;7.598;2022-11-23T02:50:05;9.33;73.40
76384;SHT30;65204;48.606;7.598;2022-11-23T02:50:36;9.31;73.35
76384;SHT30;65204;48.606;7.598;2022-11-23T02:51:06;9.33;73.30
76384;SHT30;65204;48.606;7.598;2022-11-23T02:51:36;9.32;73.36
76384;SHT30;65204;48.606;7.598;2022-11-23T02:52:08;9.33;73.35
76384;SHT30;65204;48.606;7.598;2022-11-23T02:52:38;9.32;73.24
76384;SHT30;65204;48.606;7.598;2022-11-23T02:53:08;9.31;73.16
76384;SHT30;65204;48.606;7.598;2022-11-23T02:53:39;9.32;73.08
76384;SHT30;65204;48.606;7.598;2022-11-23T02:54:09;9.31;73.10
76384;SHT30;65204;48.606;7.598;2022-11-23T02:54:39;9.31;73.10
76384;SHT30;65204;48.606;7.598;2022-11-23T02:55:10;9.31;73.04
76384;SHT30;65204;48.606;7.598;2022-11-23T02:55:40;9.31;73.08
76384;SHT30;65204;48.606;7.598;2022-11-23T02:56:11;9.31;73.10
76384;SHT30;65204;48.606;7.598;2022-11-23T02:56:41;9.32;73.05
76384;SHT30;65204;48.606;7.598;2022-11-23T02:57:12;9.32;73.01
76384;SHT30;65204;48.606;7.598;2022-11-23T02:57:42;9.32;72.97
76384;SHT30;65204;48.606;7.598;2022-11-23T02:58:12;9.33;72.96
76384;SHT30;65204;48.606;7.598;2022-11-23T02:58:43;9.32;72.98
76384;SHT30;65204;48.606;7.598;2022-11-23T02:59:13;9.36;72.97
76384;SHT30;65204;48.606;7.598;2022-11-23T02:59:44;9.35;72.96
76384;SHT30;65204;48.606;7.598;2022-11-23T03:00:15;9.35;72.99
76384;SHT30;65204;48.606;7.598;2022-11-23T03:00:45;9.38;72.94
76384;SHT30;65204;48.606;7.598;2022-11-23T03:01:15;9.38;72.88
76384;SHT30;65204;48.606;7.598;2022-11-23T03:01:47;9.38;72.88
76384;SHT30;65204;48.606;7.598;2022-11-23T03:02:17;9.36;72.97
76384;SHT30;65204;48.606;7.598;2022-11-23T03:02:47;9.38;73.05
76384;SHT30;65204;48.606;7.598;2022-11-23T03:03:18;9.38;72.98
76384;SHT30;65204;48.606;7.598;2022-11-23T03:03:48;9.39;73.02
76384;SHT30;65204;48.606;7.598;2022-11-23T03:04:18;9.40;73.06
76384;SHT30;65204;48.606;7.598;2022-11-23T03:04:49;9.40;73.12
76384;SHT30;65204;48.606;7.598;2022-11-23T03:05:19;9.39;73.18
76384;SHT30;65204;48.606;7.598;2022-11-23T03:05:49;9.42;73.33
76384;SHT30;65204;48.606;7.598;2022-11-23T03:06:20;9.42;73.02
76384;SHT30;65204;48.606;7.598;2022-11-23T03:06:50;9.42;72.87
76384;SHT30;65204;48.606;7.598;2022-11-23T03:07:20;9.44;72.96
76384;SHT30;65204;48.606;7.598;2022-11-23T03:07:51;9.46;72.96
76384;SHT30;65204;48.606;7.598;2022-11-23T03:08:21;9.43;72.89
76384;SHT30;65204;48.606;7.598;2022-11-23T03:08:51;9.44;72.75
76384;SHT30;65204;48.606;7.598;2022-11-23T03:09:22;9.46;72.74
76384;SHT30;65204;48.606;7.598;2022-11-23T03:09:52;9.47;72.64
76384;SHT30;65204;48.606;7.598;2022-11-23T03:10:24;9.50;72.65
76384;SHT30;65204;48.606;7.598;2022-11-23T03:10:54;9.49;72.64
76384;SHT30;65204;48.606;7.598;2022-11-23T03:11:25;9.49;72.60
76384;SHT30;65204;48.606;7.598;2022-11-23T03:11:55;9.49;72.57
76384;SHT30;65204;48.606;7.598;2022-11-23T03:12:25;9.47;72.72
76384;SHT30;65204;48.606;7.598;2022-11-23T03:12:56;9.47;72.78
76384;SHT30;65204;48.606;7.598;2022-11-23T03:13:26;9.47;72.86
76384;SHT30;65204;48.606;7.598;2022-11-23T03:13:57;9.49;72.90
76384;SHT30;65204;48.606;7.598;2022-11-23T03:14:27;9.50;72.75
76384;SHT30;65204;48.606;7.598;2022-11-23T03:14:57;9.50;72.82
76384;SHT30;65204;48.606;7.598;2022-11-23T03:15:28;9.49;72.55
76384;SHT30;65204;48.606;7.598;2022-11-23T03:15:58;9.52;72.70
76384;SHT30;65204;48.606;7.598;2022-11-23T03:16:29;9.50;72.74
76384;SHT30;65204;48.606;7.598;2022-11-23T03:16:59;9.49;72.99
76384;SHT30;65204;48.606;7.598;2022-11-23T03:17:29;9.49;72.95
76384;SHT30;65204;48.606;7.598;2022-11-23T03:18:00;9.52;72.93
76384;SHT30;65204;48.606;7.598;2022-11-23T03:18:30;9.53;72.93
76384;SHT30;65204;48.606;7.598;2022-11-23T03:19:01;9.52;72.82
76384;SHT30;65204;48.606;7.598;2022-11-23T03:19:31;9.52;72.65
76384;SHT30;65204;48.606;7.598;2022-11-23T03:20:02;9.50;72.56
76384;SHT30;65204;48.606;7.598;2022-11-23T03:20:33;9.53;72.62
76384;SHT30;65204;48.606;7.598;2022-11-23T03:21:04;9.54;72.64
76384;SHT30;65204;48.606;7.598;2022-11-23T03:21:37;9.52;72.56
76384;SHT30;65204;48.606;7.598;2022-11-23T03:22:08;9.50;72.48
76384;SHT30;65204;48.606;7.598;2022-11-23T03:22:38;9.52;72.53
76384;SHT30;65204;48.606;7.598;2022-11-23T03:23:09;9.52;72.59
76384;SHT30;65204;48.606;7.598;2022-11-23T03:23:39;9.50;72.50
76384;SHT30;65204;48.606;7.598;2022-11-23T03:24:09;9.50;72.55
76384;SHT30;65204;48.606;7.598;2022-11-23T03:24:40;9.52;72.49
76384;SHT30;65204;48.606;7.598;2022-11-23T03:25:10;9.53;72.46
76384;SHT30;65204;48.606;7.598;2022-11-23T03:25:40;9.50;72.50
76384;SHT30;65204;48.606;7.598;2022-11-23T03:26:11;9.52;72.39
76384;SHT30;65204;48.606;7.598;2022-11-23T03:26:41;9.50;72.43
76384;SHT30;65204;48.606;7.598;2022-11-23T03:27:12;9.49;72.39
76384;SHT30;65204;48.606;7.598;2022-11-23T03:27:42;9.49;72.46